createdAt,value
2017-12-29T00:00:26.681Z,0
2017-12-29T00:01:26.411Z,0
2017-12-29T00:02:26.657Z,0
2017-12-29T00:03:26.379Z,0
2017-12-29T00:04:26.348Z,0
2017-12-29T00:05:26.908Z,0
2017-12-29T00:06:26.865Z,0
2017-12-29T00:07:26.839Z,0
2017-12-29T00:08:26.332Z,0
2017-12-29T00:09:26.913Z,0
2017-12-29T00:10:26.292Z,0
2017-12-29T00:11:26.779Z,0
2017-12-29T00:12:26.812Z,0
2017-12-29T00:13:26.019Z,0
2017-12-29T00:14:26.500Z,0
2017-12-29T00:15:27.191Z,0
2017-12-29T00:16:26.515Z,0
2017-12-29T00:17:25.983Z,0
2017-12-29T00:18:26.496Z,0
2017-12-29T00:19:26.193Z,0
2017-12-29T00:20:26.194Z,0
2017-12-29T00:21:26.450Z,0
2017-12-29T00:22:26.676Z,0
2017-12-29T00:23:26.416Z,0
2017-12-29T00:24:26.673Z,0
2017-12-29T00:25:26.374Z,0
2017-12-29T00:26:26.619Z,0
2017-12-29T00:27:26.628Z,0
2017-12-29T00:28:26.096Z,0
2017-12-29T00:29:25.801Z,0
2017-12-29T00:30:25.793Z,0
2017-12-29T00:31:26.307Z,0
2017-12-29T00:32:26.584Z,0
2017-12-29T00:33:26.547Z,0
2017-12-29T00:34:26.284Z,0
2017-12-29T00:35:25.989Z,0
2017-12-29T00:36:26.526Z,0
2017-12-29T00:37:25.988Z,0
2017-12-29T00:38:26.511Z,0
2017-12-29T00:39:26.263Z,0
2017-12-29T00:40:26.485Z,0
2017-12-29T00:41:26.471Z,0
2017-12-29T00:42:26.185Z,0
2017-12-29T00:43:26.194Z,0
2017-12-29T00:44:26.436Z,0
2017-12-29T00:45:26.155Z,0
2017-12-29T00:46:26.417Z,0
2017-12-29T00:47:26.148Z,0
2017-12-29T00:48:25.860Z,0
2017-12-29T00:49:26.111Z,0
2017-12-29T00:50:26.364Z,0
2017-12-29T00:51:25.846Z,0
2017-12-29T00:52:25.806Z,0
2017-12-29T00:53:26.048Z,0
2017-12-29T00:54:26.053Z,0
2017-12-29T00:55:26.018Z,0
2017-12-29T00:56:26.032Z,0
2017-12-29T00:57:25.735Z,0
2017-12-29T00:58:25.979Z,0
2017-12-29T00:59:25.712Z,0
2017-12-29T01:00:25.960Z,0
2017-12-29T01:01:25.969Z,0
2017-12-29T01:02:25.934Z,0
2017-12-29T01:03:26.172Z,0
2017-12-29T01:04:25.662Z,0
2017-12-29T01:05:25.659Z,0
2017-12-29T01:06:25.970Z,0
2017-12-29T01:07:25.632Z,0
2017-12-29T01:08:25.364Z,0
2017-12-29T01:09:25.609Z,0
2017-12-29T01:10:26.107Z,0
2017-12-29T01:11:26.102Z,0
2017-12-29T01:12:26.098Z,0
2017-12-29T01:13:25.816Z,0
2017-12-29T01:14:26.058Z,0
2017-12-29T01:15:26.051Z,0
2017-12-29T01:16:27.083Z,0
2017-12-29T01:17:25.776Z,0
2017-12-29T01:18:26.013Z,0
2017-12-29T01:19:25.747Z,0
2017-12-29T01:20:25.740Z,0
2017-12-29T01:21:25.483Z,0
2017-12-29T01:22:25.716Z,0
2017-12-29T01:23:25.957Z,0
2017-12-29T01:24:25.695Z,0
2017-12-29T01:25:25.689Z,0
2017-12-29T01:26:25.678Z,0
2017-12-29T01:27:25.915Z,0
2017-12-29T01:28:25.656Z,0
2017-12-29T01:29:25.897Z,0
2017-12-29T01:30:25.657Z,0
2017-12-29T01:31:25.383Z,0
2017-12-29T01:32:25.874Z,0
2017-12-29T01:33:25.858Z,0
2017-12-29T01:34:25.337Z,0
2017-12-29T01:35:25.331Z,0
2017-12-29T01:36:25.588Z,0
2017-12-29T01:37:25.561Z,0
2017-12-29T01:38:25.801Z,0
2017-12-29T01:39:25.537Z,0
2017-12-29T01:40:25.531Z,0
2017-12-29T01:41:25.787Z,0
2017-12-29T01:42:25.760Z,0
2017-12-29T01:43:25.505Z,0
2017-12-29T01:44:25.484Z,0
2017-12-29T01:45:25.796Z,0
2017-12-29T01:46:25.669Z,0
2017-12-29T01:47:25.205Z,0
2017-12-29T01:48:25.463Z,0
2017-12-29T01:49:25.434Z,0
2017-12-29T01:50:25.169Z,0
2017-12-29T01:51:25.433Z,0
2017-12-29T01:52:25.649Z,0
2017-12-29T01:53:25.398Z,0
2017-12-29T01:54:25.133Z,0
2017-12-29T01:55:25.378Z,0
2017-12-29T01:56:25.620Z,0
2017-12-29T01:57:25.366Z,0
2017-12-29T01:58:25.351Z,0
2017-12-29T01:59:25.592Z,0
2017-12-29T02:00:25.352Z,0
2017-12-29T02:01:25.586Z,0
2017-12-29T02:02:25.557Z,0
2017-12-29T02:03:25.293Z,0
2017-12-29T02:04:25.286Z,0
2017-12-29T02:05:25.023Z,0
2017-12-29T02:06:25.265Z,0
2017-12-29T02:07:25.254Z,0
2017-12-29T02:08:25.502Z,0
2017-12-29T02:09:25.491Z,0
2017-12-29T02:10:24.984Z,0
2017-12-29T02:11:25.219Z,0
2017-12-29T02:12:25.454Z,0
2017-12-29T02:13:25.193Z,0
2017-12-29T02:14:24.944Z,0
2017-12-29T02:15:25.221Z,0
2017-12-29T02:16:26.471Z,0
2017-12-29T02:17:25.149Z,0
2017-12-29T02:18:25.395Z,0
2017-12-29T02:19:25.390Z,0
2017-12-29T02:20:24.887Z,0
2017-12-29T02:21:24.627Z,0
2017-12-29T02:22:24.860Z,0
2017-12-29T02:23:25.091Z,0
2017-12-29T02:24:25.091Z,0
2017-12-29T02:25:24.824Z,0
2017-12-29T02:26:25.069Z,0
2017-12-29T02:27:24.798Z,0
2017-12-29T02:28:25.041Z,0
2017-12-29T02:29:24.782Z,0
2017-12-29T02:30:25.272Z,0
2017-12-29T02:31:25.284Z,0
2017-12-29T02:32:25.016Z,0
2017-12-29T02:33:24.997Z,0
2017-12-29T02:34:25.236Z,0
2017-12-29T02:35:24.983Z,0
2017-12-29T02:36:25.220Z,0
2017-12-29T02:37:24.702Z,0
2017-12-29T02:38:24.959Z,0
2017-12-29T02:39:24.687Z,0
2017-12-29T02:40:25.202Z,0
2017-12-29T02:41:24.920Z,0
2017-12-29T02:42:24.908Z,0
2017-12-29T02:43:24.641Z,0
2017-12-29T02:44:25.132Z,0
2017-12-29T02:45:24.981Z,0
2017-12-29T02:46:24.610Z,0
2017-12-29T02:47:25.103Z,0
2017-12-29T02:48:24.846Z,0
2017-12-29T02:49:24.831Z,0
2017-12-29T02:50:25.077Z,0
2017-12-29T02:51:24.813Z,0
2017-12-29T02:52:24.806Z,0
2017-12-29T02:53:25.050Z,0
2017-12-29T02:54:25.044Z,0
2017-12-29T02:55:24.525Z,0
2017-12-29T02:56:24.771Z,0
2017-12-29T02:57:24.768Z,0
2017-12-29T02:58:24.509Z,0
2017-12-29T02:59:24.746Z,0
2017-12-29T03:00:24.736Z,0
2017-12-29T03:01:24.724Z,0
2017-12-29T03:02:24.952Z,0
2017-12-29T03:03:24.710Z,0
2017-12-29T03:04:24.699Z,0
2017-12-29T03:05:24.444Z,0
2017-12-29T03:06:24.440Z,0
2017-12-29T03:07:24.921Z,0
2017-12-29T03:08:24.415Z,0
2017-12-29T03:09:24.634Z,0
2017-12-29T03:10:24.902Z,0
2017-12-29T03:11:24.874Z,0
2017-12-29T03:12:24.630Z,0
2017-12-29T03:13:24.603Z,0
2017-12-29T03:14:24.836Z,0
2017-12-29T03:15:24.579Z,0
2017-12-29T03:16:24.819Z,0
2017-12-29T03:17:24.954Z,0
2017-12-29T03:18:24.558Z,0
2017-12-29T03:19:24.539Z,0
2017-12-29T03:20:24.529Z,0
2017-12-29T03:21:24.018Z,0
2017-12-29T03:22:24.525Z,0
2017-12-29T03:23:24.746Z,0
2017-12-29T03:24:24.245Z,0
2017-12-29T03:25:24.485Z,0
2017-12-29T03:26:24.745Z,0
2017-12-29T03:27:24.478Z,0
2017-12-29T03:28:24.478Z,0
2017-12-29T03:29:24.438Z,0
2017-12-29T03:30:24.697Z,0
2017-12-29T03:31:24.422Z,0
2017-12-29T03:32:24.416Z,0
2017-12-29T03:33:24.402Z,0
2017-12-29T03:34:24.667Z,0
2017-12-29T03:35:24.133Z,0
2017-12-29T03:36:24.123Z,0
2017-12-29T03:37:24.102Z,0
2017-12-29T03:38:24.358Z,0
2017-12-29T03:39:24.592Z,0
2017-12-29T03:40:24.324Z,0
2017-12-29T03:41:24.066Z,0
2017-12-29T03:42:24.562Z,0
2017-12-29T03:43:23.788Z,0
2017-12-29T03:44:24.289Z,0
2017-12-29T03:45:24.533Z,0
2017-12-29T03:46:24.260Z,0
2017-12-29T03:47:25.707Z,0
2017-12-29T03:48:23.985Z,0
2017-12-29T03:49:23.986Z,0
2017-12-29T03:50:24.236Z,0
2017-12-29T03:51:24.494Z,0
2017-12-29T03:52:24.455Z,0
2017-12-29T03:53:24.456Z,0
2017-12-29T03:54:24.434Z,0
2017-12-29T03:55:24.163Z,0
2017-12-29T03:56:24.405Z,0
2017-12-29T03:57:24.141Z,0
2017-12-29T03:58:24.136Z,0
2017-12-29T03:59:23.884Z,0
2017-12-29T04:00:24.131Z,0
2017-12-29T04:01:24.361Z,0
2017-12-29T04:02:23.592Z,0
2017-12-29T04:03:24.080Z,0
2017-12-29T04:04:24.316Z,0
2017-12-29T04:05:24.322Z,0
2017-12-29T04:06:24.057Z,0
2017-12-29T04:07:24.038Z,0
2017-12-29T04:08:24.026Z,0
2017-12-29T04:09:24.021Z,0
2017-12-29T04:10:24.421Z,0
2017-12-29T04:11:24.248Z,0
2017-12-29T04:12:24.782Z,0
2017-12-29T04:13:23.968Z,0
2017-12-29T04:14:24.209Z,0
2017-12-29T04:15:23.962Z,0
2017-12-29T04:16:23.940Z,0
2017-12-29T04:17:25.689Z,0
2017-12-29T04:18:24.166Z,0
2017-12-29T04:19:23.900Z,0
2017-12-29T04:20:24.147Z,0
2017-12-29T04:21:24.143Z,0
2017-12-29T04:22:23.868Z,0
2017-12-29T04:23:23.867Z,0
2017-12-29T04:24:24.098Z,0
2017-12-29T04:25:23.837Z,0
2017-12-29T04:26:24.092Z,0
2017-12-29T04:27:24.065Z,0
2017-12-29T04:28:23.808Z,0
2017-12-29T04:29:23.807Z,0
2017-12-29T04:30:23.788Z,0
2017-12-29T04:31:24.023Z,0
2017-12-29T04:32:24.009Z,0
2017-12-29T04:33:23.501Z,0
2017-12-29T04:34:23.242Z,0
2017-12-29T04:35:23.727Z,0
2017-12-29T04:36:23.720Z,0
2017-12-29T04:37:23.959Z,0
2017-12-29T04:38:23.944Z,0
2017-12-29T04:39:23.425Z,0
2017-12-29T04:40:23.697Z,0
2017-12-29T04:41:23.416Z,0
2017-12-29T04:42:23.642Z,0
2017-12-29T04:43:23.141Z,0
2017-12-29T04:44:23.629Z,0
2017-12-29T04:45:23.668Z,0
2017-12-29T04:46:23.621Z,0
2017-12-29T04:47:23.096Z,0
2017-12-29T04:48:23.337Z,0
2017-12-29T04:49:23.335Z,0
2017-12-29T04:50:23.878Z,0
2017-12-29T04:51:23.818Z,0
2017-12-29T04:52:23.543Z,0
2017-12-29T04:53:23.523Z,0
2017-12-29T04:54:23.007Z,0
2017-12-29T04:55:23.512Z,0
2017-12-29T04:56:23.742Z,0
2017-12-29T04:57:23.483Z,0
2017-12-29T04:58:23.711Z,0
2017-12-29T04:59:23.714Z,0
2017-12-29T05:00:22.942Z,0
2017-12-29T05:01:23.444Z,0
2017-12-29T05:02:23.424Z,0
2017-12-29T05:03:23.933Z,0
2017-12-29T05:04:23.393Z,0
2017-12-29T05:05:23.638Z,0
2017-12-29T05:06:23.385Z,0
2017-12-29T05:07:23.364Z,0
2017-12-29T05:08:23.352Z,0
2017-12-29T05:09:23.350Z,0
2017-12-29T05:10:23.590Z,0
2017-12-29T05:11:23.328Z,0
2017-12-29T05:12:23.306Z,0
2017-12-29T05:13:23.552Z,0
2017-12-29T05:14:23.292Z,0
2017-12-29T05:15:23.530Z,0
2017-12-29T05:16:23.015Z,0
2017-12-29T05:17:23.247Z,0
2017-12-29T05:18:25.082Z,0
2017-12-29T05:19:22.967Z,0
2017-12-29T05:20:23.506Z,0
2017-12-29T05:21:23.467Z,0
2017-12-29T05:22:23.189Z,0
2017-12-29T05:23:23.423Z,0
2017-12-29T05:24:23.442Z,0
2017-12-29T05:25:23.400Z,0
2017-12-29T05:26:23.140Z,0
2017-12-29T05:27:23.124Z,0
2017-12-29T05:28:23.368Z,0
2017-12-29T05:29:23.116Z,0
2017-12-29T05:30:23.097Z,0
2017-12-29T05:31:22.854Z,0
2017-12-29T05:32:23.322Z,0
2017-12-29T05:33:23.310Z,0
2017-12-29T05:34:23.316Z,0
2017-12-29T05:35:23.034Z,0
2017-12-29T05:36:22.772Z,0
2017-12-29T05:37:23.009Z,0
2017-12-29T05:38:23.013Z,0
2017-12-29T05:39:22.985Z,0
2017-12-29T05:40:23.240Z,0
2017-12-29T05:41:22.966Z,0
2017-12-29T05:42:23.210Z,0
2017-12-29T05:43:22.954Z,0
2017-12-29T05:44:22.932Z,0
2017-12-29T05:45:23.086Z,0
2017-12-29T05:46:23.166Z,0
2017-12-29T05:47:23.151Z,0
2017-12-29T05:48:23.285Z,0
2017-12-29T05:49:23.134Z,0
2017-12-29T05:50:23.133Z,0
2017-12-29T05:51:22.854Z,0
2017-12-29T05:52:23.103Z,0
2017-12-29T05:53:22.826Z,0
2017-12-29T05:54:22.566Z,0
2017-12-29T05:55:22.849Z,0
2017-12-29T05:56:22.795Z,0
2017-12-29T05:57:22.531Z,0
2017-12-29T05:58:22.522Z,0
2017-12-29T05:59:22.758Z,0
2017-12-29T06:00:22.749Z,0
2017-12-29T06:01:22.738Z,0
2017-12-29T06:02:22.472Z,0
2017-12-29T06:03:22.704Z,0
2017-12-29T06:04:22.697Z,0
2017-12-29T06:05:22.684Z,0
2017-12-29T06:06:22.424Z,0
2017-12-29T06:07:22.420Z,0
2017-12-29T06:08:22.405Z,0
2017-12-29T06:09:22.385Z,0
2017-12-29T06:10:23.138Z,0
2017-12-29T06:11:22.619Z,0
2017-12-29T06:12:22.353Z,0
2017-12-29T06:13:22.100Z,0
2017-12-29T06:14:22.325Z,0
2017-12-29T06:15:22.722Z,0
2017-12-29T06:16:22.565Z,0
2017-12-29T06:17:22.549Z,0
2017-12-29T06:18:23.348Z,0
2017-12-29T06:19:22.519Z,0
2017-12-29T06:20:23.394Z,0
2017-12-29T06:21:22.764Z,0
2017-12-29T06:22:22.742Z,0
2017-12-29T06:23:22.484Z,0
2017-12-29T06:24:22.484Z,0
2017-12-29T06:25:23.304Z,0
2017-12-29T06:26:22.460Z,0
2017-12-29T06:27:22.453Z,0
2017-12-29T06:28:22.668Z,0
2017-12-29T06:29:22.706Z,0
2017-12-29T06:30:22.616Z,0
2017-12-29T06:31:22.394Z,0
2017-12-29T06:32:22.622Z,0
2017-12-29T06:33:22.360Z,0
2017-12-29T06:34:22.346Z,0
2017-12-29T06:35:22.634Z,0
2017-12-29T06:36:22.318Z,0
2017-12-29T06:37:22.309Z,0
2017-12-29T06:38:22.044Z,0
2017-12-29T06:39:22.290Z,0
2017-12-29T06:40:22.508Z,4
2017-12-29T06:41:22.529Z,4
2017-12-29T06:42:22.252Z,4
2017-12-29T06:43:22.250Z,0
2017-12-29T06:44:22.229Z,0
2017-12-29T06:45:22.579Z,4
2017-12-29T06:46:21.968Z,4
2017-12-29T06:47:22.204Z,4
2017-12-29T06:48:21.937Z,0
2017-12-29T06:49:23.223Z,4
2017-12-29T06:50:22.755Z,4
2017-12-29T06:51:22.402Z,4
2017-12-29T06:52:22.399Z,8
2017-12-29T06:53:22.388Z,8
2017-12-29T06:54:22.121Z,8
2017-12-29T06:55:22.854Z,8
2017-12-29T06:56:22.349Z,12
2017-12-29T06:57:21.826Z,16
2017-12-29T06:58:22.063Z,16
2017-12-29T06:59:22.086Z,20
2017-12-29T07:00:22.835Z,24
2017-12-29T07:01:21.796Z,28
2017-12-29T07:02:22.022Z,32
2017-12-29T07:03:22.014Z,40
2017-12-29T07:04:21.997Z,44
2017-12-29T07:05:21.902Z,52
2017-12-29T07:06:22.224Z,56
2017-12-29T07:07:21.971Z,68
2017-12-29T07:08:22.217Z,80
2017-12-29T07:09:21.453Z,92
2017-12-29T07:10:22.397Z,100
2017-12-29T07:11:22.184Z,112
2017-12-29T07:12:21.914Z,124
2017-12-29T07:13:22.155Z,144
2017-12-29T07:14:22.141Z,160
2017-12-29T07:15:22.151Z,176
2017-12-29T07:16:22.146Z,192
2017-12-29T07:17:21.872Z,212
2017-12-29T07:18:21.841Z,232
2017-12-29T07:19:22.247Z,256
2017-12-29T07:20:22.658Z,280
2017-12-29T07:21:22.065Z,308
2017-12-29T07:22:22.059Z,332
2017-12-29T07:23:21.788Z,364
2017-12-29T07:24:21.778Z,388
2017-12-29T07:25:22.651Z,420
2017-12-29T07:26:22.012Z,452
2017-12-29T07:27:21.743Z,480
2017-12-29T07:28:21.982Z,516
2017-12-29T07:29:21.723Z,552
2017-12-29T07:30:22.255Z,588
2017-12-29T07:31:21.961Z,616
2017-12-29T07:32:21.688Z,656
2017-12-29T07:33:21.678Z,704
2017-12-29T07:34:21.918Z,792
2017-12-29T07:35:21.856Z,956
2017-12-29T07:36:21.398Z,1044
2017-12-29T07:37:21.893Z,1020
2017-12-29T07:38:21.643Z,1060
2017-12-29T07:39:21.877Z,1100
2017-12-29T07:40:22.467Z,1080
2017-12-29T07:41:21.839Z,1056
2017-12-29T07:42:21.837Z,1072
2017-12-29T07:43:21.325Z,1100
2017-12-29T07:44:21.563Z,1140
2017-12-29T07:45:22.272Z,1184
2017-12-29T07:46:21.537Z,1228
2017-12-29T07:47:21.530Z,1276
2017-12-29T07:48:21.278Z,1324
2017-12-29T07:49:21.498Z,1372
2017-12-29T07:50:21.680Z,1420
2017-12-29T07:51:21.496Z,1476
2017-12-29T07:52:21.722Z,1528
2017-12-29T07:53:21.450Z,1580
2017-12-29T07:54:21.188Z,1636
2017-12-29T07:55:22.058Z,1688
2017-12-29T07:56:21.439Z,1744
2017-12-29T07:57:21.159Z,1804
2017-12-29T07:58:21.397Z,1856
2017-12-29T07:59:22.436Z,1908
2017-12-29T08:00:21.919Z,1956
2017-12-29T08:01:21.385Z,2000
2017-12-29T08:02:20.852Z,2040
2017-12-29T08:03:21.593Z,2080
2017-12-29T08:04:21.089Z,2120
2017-12-29T08:05:21.069Z,2172
2017-12-29T08:06:21.333Z,2216
2017-12-29T08:07:21.043Z,2268
2017-12-29T08:08:21.293Z,2316
2017-12-29T08:09:21.279Z,2360
2017-12-29T08:10:21.579Z,2416
2017-12-29T08:11:20.749Z,2468
2017-12-29T08:12:21.245Z,2520
2017-12-29T08:13:21.231Z,2556
2017-12-29T08:14:21.213Z,2584
2017-12-29T08:15:21.757Z,2608
2017-12-29T08:16:21.459Z,2632
2017-12-29T08:17:21.193Z,2656
2017-12-29T08:18:20.935Z,2672
2017-12-29T08:19:21.419Z,2688
2017-12-29T08:20:21.495Z,2716
2017-12-29T08:21:20.895Z,2736
2017-12-29T08:22:21.391Z,2768
2017-12-29T08:23:20.872Z,2808
2017-12-29T08:24:21.362Z,2852
2017-12-29T08:25:21.452Z,2896
2017-12-29T08:26:21.106Z,2940
2017-12-29T08:27:21.080Z,2996
2017-12-29T08:28:21.404Z,3052
2017-12-29T08:29:20.810Z,3104
2017-12-29T08:30:21.007Z,3152
2017-12-29T08:31:20.787Z,3204
2017-12-29T08:32:20.783Z,3252
2017-12-29T08:33:21.023Z,3292
2017-12-29T08:34:20.754Z,3332
2017-12-29T08:35:20.966Z,3372
2017-12-29T08:37:20.724Z,3432
2017-12-29T08:38:21.220Z,3468
2017-12-29T08:39:20.954Z,3504
2017-12-29T08:40:21.153Z,3540
2017-12-29T08:41:21.203Z,3568
2017-12-29T08:42:20.669Z,3608
2017-12-29T08:43:20.916Z,3648
2017-12-29T08:44:21.169Z,3692
2017-12-29T08:45:21.950Z,3728
2017-12-29T08:46:20.877Z,3756
2017-12-29T08:47:21.162Z,3772
2017-12-29T08:48:20.359Z,3776
2017-12-29T08:49:20.610Z,3768
2017-12-29T08:50:21.379Z,3768
2017-12-29T08:51:21.104Z,3768
2017-12-29T08:52:20.582Z,3772
2017-12-29T08:53:21.086Z,3772
2017-12-29T08:54:20.806Z,3776
2017-12-29T08:55:21.379Z,3776
2017-12-29T08:56:20.780Z,3776
2017-12-29T08:57:20.776Z,3780
2017-12-29T08:58:20.766Z,3788
2017-12-29T08:59:20.998Z,3808
2017-12-29T09:00:20.966Z,3828
2017-12-29T09:01:20.989Z,3852
2017-12-29T09:02:20.974Z,3880
2017-12-29T09:03:20.715Z,3904
2017-12-29T09:04:20.699Z,3924
2017-12-29T09:05:20.933Z,3948
2017-12-29T09:06:20.684Z,3964
2017-12-29T09:07:20.677Z,3992
2017-12-29T09:08:20.418Z,4016
2017-12-29T09:09:20.404Z,4036
2017-12-29T09:10:21.011Z,4060
2017-12-29T09:11:20.632Z,4084
2017-12-29T09:12:20.620Z,4108
2017-12-29T09:13:20.617Z,4124
2017-12-29T09:14:20.601Z,4148
2017-12-29T09:15:21.072Z,4172
2017-12-29T09:16:20.588Z,4196
2017-12-29T09:17:20.610Z,4220
2017-12-29T09:18:20.566Z,4256
2017-12-29T09:19:20.561Z,4292
2017-12-29T09:20:20.696Z,4324
2017-12-29T09:21:20.688Z,4364
2017-12-29T09:22:20.782Z,4400
2017-12-29T09:23:20.276Z,4464
2017-12-29T09:24:19.998Z,4444
2017-12-29T09:25:20.657Z,4500
2017-12-29T09:26:20.490Z,4524
2017-12-29T09:27:20.504Z,4564
2017-12-29T09:28:20.720Z,4588
2017-12-29T09:29:20.468Z,4596
2017-12-29T09:30:21.324Z,4640
2017-12-29T09:31:20.690Z,4660
2017-12-29T09:32:20.674Z,4676
2017-12-29T09:33:20.416Z,4708
2017-12-29T09:34:20.153Z,4740
2017-12-29T09:35:21.327Z,4760
2017-12-29T09:36:20.386Z,4792
2017-12-29T09:37:20.377Z,4820
2017-12-29T09:38:20.119Z,4844
2017-12-29T09:39:19.849Z,4868
2017-12-29T09:40:20.645Z,4900
2017-12-29T09:41:20.345Z,4920
2017-12-29T09:42:20.634Z,4944
2017-12-29T09:43:20.331Z,4968
2017-12-29T09:44:20.315Z,4992
2017-12-29T09:45:20.756Z,5016
2017-12-29T09:46:20.295Z,5028
2017-12-29T09:47:20.029Z,5012
2017-12-29T09:48:20.564Z,5060
2017-12-29T09:49:20.295Z,5064
2017-12-29T09:50:20.692Z,5080
2017-12-29T09:51:20.486Z,5092
2017-12-29T09:52:20.231Z,5104
2017-12-29T09:53:20.246Z,5112
2017-12-29T09:54:20.230Z,5124
2017-12-29T09:55:20.927Z,5136
2017-12-29T09:56:20.221Z,5148
2017-12-29T09:57:20.437Z,5156
2017-12-29T09:58:20.173Z,5172
2017-12-29T09:59:20.172Z,5180
2017-12-29T10:00:20.854Z,5188
2017-12-29T10:01:20.410Z,5192
2017-12-29T10:02:20.396Z,5204
2017-12-29T10:03:20.125Z,5204
2017-12-29T10:04:20.130Z,5212
2017-12-29T10:05:20.897Z,5212
2017-12-29T10:06:20.376Z,5216
2017-12-29T10:07:20.091Z,5216
2017-12-29T10:08:20.342Z,5220
2017-12-29T10:09:20.074Z,5224
2017-12-29T10:10:20.224Z,5228
2017-12-29T10:11:20.063Z,5232
2017-12-29T10:12:20.043Z,5232
2017-12-29T10:13:19.793Z,5236
2017-12-29T10:14:20.033Z,5236
2017-12-29T10:15:21.198Z,5236
2017-12-29T10:16:20.009Z,5232
2017-12-29T10:17:19.750Z,5240
2017-12-29T10:18:20.242Z,5232
2017-12-29T10:19:20.242Z,5236
2017-12-29T10:20:20.558Z,5232
2017-12-29T10:21:20.766Z,5224
2017-12-29T10:22:20.262Z,5220
2017-12-29T10:52:43.045Z,5112
2017-12-29T10:53:40.120Z,5104
2017-12-29T10:54:40.133Z,5096
2017-12-29T10:55:40.370Z,5088
2017-12-29T10:56:40.091Z,5072
2017-12-29T10:57:40.331Z,5060
2017-12-29T10:58:39.802Z,5052
2017-12-29T10:59:40.299Z,5052
2017-12-29T11:00:40.287Z,5048
2017-12-29T11:01:39.773Z,5044
2017-12-29T11:02:39.787Z,5040
2017-12-29T11:03:39.777Z,5040
2017-12-29T11:04:39.983Z,5036
2017-12-29T11:05:39.990Z,5020
2017-12-29T11:06:40.217Z,5024
2017-12-29T11:07:40.279Z,5028
2017-12-29T11:08:40.212Z,5020
2017-12-29T11:09:40.199Z,5012
2017-12-29T11:10:39.684Z,5008
2017-12-29T11:11:40.187Z,5012
2017-12-29T11:12:39.910Z,5008
2017-12-29T11:13:40.153Z,5000
2017-12-29T11:14:39.908Z,5000
2017-12-29T11:15:40.150Z,4984
2017-12-29T11:16:39.889Z,4972
2017-12-29T11:17:39.863Z,4968
2017-12-29T11:18:40.110Z,4952
2017-12-29T11:19:39.859Z,4944
2017-12-29T11:20:39.596Z,4788
2017-12-29T11:21:39.844Z,4892
2017-12-29T11:22:39.780Z,4900
2017-12-29T11:23:39.817Z,4876
2017-12-29T11:24:40.118Z,4832
2017-12-29T11:25:40.043Z,4848
2017-12-29T11:26:39.538Z,4896
2017-12-29T11:27:40.042Z,4860
2017-12-29T11:28:40.027Z,4912
2017-12-29T11:29:39.773Z,4900
2017-12-29T11:30:39.513Z,4892
2017-12-29T11:31:39.860Z,4940
2017-12-29T11:32:39.993Z,4620
2017-12-29T11:33:39.734Z,4956
2017-12-29T11:34:39.731Z,4964
2017-12-29T11:35:39.968Z,4976
2017-12-29T11:36:39.707Z,4980
2017-12-29T11:37:39.200Z,5000
2017-12-29T11:38:39.702Z,5008
2017-12-29T11:39:39.707Z,5012
2017-12-29T11:40:39.434Z,5004
2017-12-29T11:41:39.413Z,4964
2017-12-29T11:42:39.683Z,4932
2017-12-29T11:43:39.904Z,4904
2017-12-29T11:44:39.650Z,4872
2017-12-29T11:45:39.644Z,4836
2017-12-29T11:46:39.622Z,4744
2017-12-29T11:47:39.616Z,4568
2017-12-29T11:48:39.875Z,4336
2017-12-29T11:49:39.853Z,4292
2017-12-29T11:50:39.593Z,4152
2017-12-29T11:51:39.838Z,4320
2017-12-29T11:52:39.849Z,4416
2017-12-29T11:53:39.325Z,4500
2017-12-29T11:54:39.565Z,4300
2017-12-29T11:55:39.563Z,4716
2017-12-29T11:56:39.820Z,4716
2017-12-29T11:57:39.286Z,4696
2017-12-29T11:58:39.799Z,4532
2017-12-29T11:59:39.535Z,4580
2017-12-29T12:00:39.776Z,4624
2017-12-29T12:01:39.771Z,4724
2017-12-29T12:02:39.499Z,4636
2017-12-29T12:03:39.746Z,4684
2017-12-29T12:04:39.753Z,4724
2017-12-29T12:05:39.247Z,4716
2017-12-29T12:06:39.480Z,4380
2017-12-29T12:07:39.221Z,4480
2017-12-29T12:08:39.718Z,4240
2017-12-29T12:09:39.442Z,4272
2017-12-29T12:10:39.439Z,4460
2017-12-29T12:11:39.176Z,4544
2017-12-29T12:12:38.924Z,4564
2017-12-29T12:13:39.188Z,4560
2017-12-29T12:14:39.183Z,4572
2017-12-29T12:15:39.153Z,4432
2017-12-29T12:16:39.390Z,4588
2017-12-29T12:17:39.144Z,4548
2017-12-29T12:18:39.380Z,4492
2017-12-29T12:19:39.112Z,4652
2017-12-29T12:20:39.615Z,4564
2017-12-29T12:21:39.114Z,4420
2017-12-29T12:22:39.390Z,4416
2017-12-29T12:23:39.594Z,4444
2017-12-29T12:24:39.322Z,4396
2017-12-29T12:25:39.572Z,4240
2017-12-29T12:26:39.563Z,4692
2017-12-29T12:27:39.578Z,4560
2017-12-29T12:28:39.319Z,4660
2017-12-29T12:29:39.304Z,4384
2017-12-29T12:30:39.286Z,4828
2017-12-29T12:31:39.280Z,5072
2017-12-29T12:32:39.027Z,5192
2017-12-29T12:33:39.267Z,5276
2017-12-29T12:34:39.261Z,5252
2017-12-29T12:35:39.506Z,5024
2017-12-29T12:36:39.036Z,4712
2017-12-29T12:37:39.226Z,4992
2017-12-29T12:38:38.984Z,4728
2017-12-29T12:39:39.226Z,4452
2017-12-29T12:40:38.955Z,4856
2017-12-29T12:41:39.202Z,5008
2017-12-29T12:42:39.453Z,5100
2017-12-29T12:43:39.451Z,5132
2017-12-29T12:44:39.189Z,5196
2017-12-29T12:45:38.917Z,5220
2017-12-29T12:46:38.908Z,5096
2017-12-29T12:47:39.024Z,5000
2017-12-29T12:48:39.162Z,4776
2017-12-29T12:49:38.884Z,4684
2017-12-29T12:50:38.880Z,4508
2017-12-29T12:51:39.151Z,4328
2017-12-29T12:52:39.395Z,4272
2017-12-29T12:53:40.861Z,4064
2017-12-29T12:54:39.128Z,3908
2017-12-29T12:55:38.844Z,3848
2017-12-29T12:56:39.110Z,3816
2017-12-29T12:57:38.823Z,3788
2017-12-29T12:58:39.080Z,3780
2017-12-29T12:59:39.314Z,3784
2017-12-29T13:00:39.075Z,3784
2017-12-29T13:01:38.788Z,3764
2017-12-29T13:02:39.287Z,3740
2017-12-29T13:03:39.295Z,3704
2017-12-29T13:04:38.773Z,3676
2017-12-29T13:05:38.766Z,3652
2017-12-29T13:06:39.259Z,3640
2017-12-29T13:07:39.257Z,3624
2017-12-29T13:08:39.041Z,3624
2017-12-29T13:09:38.992Z,3624
2017-12-29T13:10:39.228Z,3620
2017-12-29T13:11:38.722Z,3616
2017-12-29T13:12:38.708Z,3600
2017-12-29T13:13:38.963Z,3580
2017-12-29T13:14:38.949Z,3552
2017-12-29T13:15:38.938Z,3524
2017-12-29T13:16:38.957Z,3496
2017-12-29T13:17:38.926Z,3468
2017-12-29T13:18:39.178Z,3436
2017-12-29T13:19:38.923Z,3396
2017-12-29T13:20:39.153Z,3360
2017-12-29T13:21:38.664Z,3324
2017-12-29T13:22:38.636Z,3292
2017-12-29T13:23:38.892Z,3256
2017-12-29T13:24:38.618Z,3224
2017-12-29T13:25:39.120Z,3192
2017-12-29T13:26:38.603Z,3164
2017-12-29T13:27:38.860Z,3136
2017-12-29T13:28:38.590Z,3100
2017-12-29T13:29:38.846Z,3060
2017-12-29T13:30:38.575Z,3024
2017-12-29T13:31:38.820Z,2984
2017-12-29T13:32:38.827Z,2948
2017-12-29T13:33:38.805Z,2904
2017-12-29T13:34:38.857Z,2856
2017-12-29T13:35:38.820Z,2800
2017-12-29T13:36:38.782Z,2740
2017-12-29T13:37:38.536Z,2676
2017-12-29T13:38:38.679Z,2608
2017-12-29T13:39:38.507Z,2544
2017-12-29T13:40:38.823Z,2480
2017-12-29T13:41:38.737Z,2416
2017-12-29T13:42:38.833Z,2344
2017-12-29T13:43:38.745Z,2272
2017-12-29T13:44:38.967Z,2192
2017-12-29T13:45:38.789Z,2116
2017-12-29T13:46:38.481Z,2044
2017-12-29T13:47:38.202Z,1992
2017-12-29T13:48:38.943Z,1960
2017-12-29T13:49:38.951Z,1944
2017-12-29T13:50:38.199Z,1948
2017-12-29T13:51:38.712Z,1956
2017-12-29T13:52:38.696Z,1964
2017-12-29T13:53:38.928Z,1980
2017-12-29T13:54:38.930Z,2000
2017-12-29T13:55:38.895Z,2016
2017-12-29T13:56:38.644Z,2032
2017-12-29T13:57:38.636Z,2040
2017-12-29T13:58:38.618Z,2032
2017-12-29T13:59:38.604Z,2020
2017-12-29T14:00:38.607Z,2000
2017-12-29T14:01:38.611Z,1972
2017-12-29T14:02:38.901Z,1940
2017-12-29T14:03:38.827Z,1908
2017-12-29T14:04:38.118Z,1880
2017-12-29T14:05:38.697Z,1852
2017-12-29T14:06:38.831Z,1824
2017-12-29T14:07:38.842Z,1792
2017-12-29T14:08:38.284Z,1764
2017-12-29T14:09:38.312Z,1732
2017-12-29T14:10:38.520Z,1704
2017-12-29T14:11:38.766Z,1664
2017-12-29T14:12:38.598Z,1620
2017-12-29T14:13:38.512Z,1568
2017-12-29T14:14:38.483Z,1508
2017-12-29T14:15:38.253Z,1444
2017-12-29T14:16:38.231Z,1384
2017-12-29T14:17:38.488Z,1328
2017-12-29T14:18:38.452Z,1284
2017-12-29T14:19:37.950Z,1244
2017-12-29T14:20:38.455Z,1212
2017-12-29T14:21:38.426Z,1180
2017-12-29T14:22:38.696Z,1144
2017-12-29T14:23:38.113Z,1100
2017-12-29T14:24:38.172Z,1048
2017-12-29T14:25:38.144Z,988
2017-12-29T14:26:38.413Z,940
2017-12-29T14:27:38.384Z,904
2017-12-29T14:28:38.627Z,876
2017-12-29T14:29:38.383Z,848
2017-12-29T14:30:38.127Z,824
2017-12-29T14:31:38.588Z,800
2017-12-29T14:32:38.095Z,780